sensor_id;sensor_type;location;lat;lon;timestamp;temperature;humidity
2653;DHT22;1336;48.692;9.144;2023-03-20T06:00:23;11.40;97.20
2653;DHT22;1336;48.692;9.144;2023-03-20T06:01:15;11.40;97.20
2653;DHT22;1336;48.692;9.144;2023-03-20T06:02:11;11.40;97.20
2653;DHT22;1336;48.692;9.144;2023-03-20T06:03:03;11.40;97.20
2653;DHT22;1336;48.692;9.144;2023-03-20T06:03:56;11.40;97.20
2653;DHT22;1336;48.692;9.144;2023-03-20T06:04:47;11.40;97.20
2653;DHT22;1336;48.692;9.144;2023-03-20T06:05:38;11.50;97.20
2653;DHT22;1336;48.692;9.144;2023-03-20T06:06:30;11.50;97.20
2653;DHT22;1336;48.692;9.144;2023-03-20T06:07:21;11.50;97.20
2653;DHT22;1336;48.692;9.144;2023-03-20T06:08:13;11.50;97.20
2653;DHT22;1336;48.692;9.144;2023-03-20T06:09:05;11.50;97.20
2653;DHT22;1336;48.692;9.144;2023-03-20T06:09:56;11.50;97.20
2653;DHT22;1336;48.692;9.144;2023-03-20T06:10:49;11.60;97.20
2653;DHT22;1336;48.692;9.144;2023-03-20T06:11:40;11.60;97.20
2653;DHT22;1336;48.692;9.144;2023-03-20T06:12:31;11.60;97.20
2653;DHT22;1336;48.692;9.144;2023-03-20T06:13:23;11.60;97.20
2653;DHT22;1336;48.692;9.144;2023-03-20T06:14:14;11.60;97.20
2653;DHT22;1336;48.692;9.144;2023-03-20T06:15:06;11.60;97.20
2653;DHT22;1336;48.692;9.144;2023-03-20T06:15:59;11.70;97.20
2653;DHT22;1336;48.692;9.144;2023-03-20T06:16:50;11.70;97.20
2653;DHT22;1336;48.692;9.144;2023-03-20T06:17:43;11.70;97.20
2653;DHT22;1336;48.692;9.144;2023-03-20T06:18:35;11.70;97.20
2653;DHT22;1336;48.692;9.144;2023-03-20T06:19:25;11.70;97.20
2653;DHT22;1336;48.692;9.144;2023-03-20T06:20:17;11.70;97.20
2653;DHT22;1336;48.692;9.144;2023-03-20T06:21:08;11.70;97.20
2653;DHT22;1336;48.692;9.144;2023-03-20T06:22:02;11.70;97.20
2653;DHT22;1336;48.692;9.144;2023-03-20T06:22:53;11.80;97.20
2653;DHT22;1336;48.692;9.144;2023-03-20T06:23:44;11.80;97.20
2653;DHT22;1336;48.692;9.144;2023-03-20T06:24:35;11.80;97.20
2653;DHT22;1336;48.692;9.144;2023-03-20T06:25:27;11.80;97.20
2653;DHT22;1336;48.692;9.144;2023-03-20T06:26:18;11.80;97.20
2653;DHT22;1336;48.692;9.144;2023-03-20T06:27:10;11.80;97.20
2653;DHT22;1336;48.692;9.144;2023-03-20T06:28:00;11.80;97.20
2653;DHT22;1336;48.692;9.144;2023-03-20T06:28:52;11.80;97.20
2653;DHT22;1336;48.692;9.144;2023-03-20T06:29:43;11.90;97.20
2653;DHT22;1336;48.692;9.144;2023-03-20T06:30:35;11.90;97.20
2653;DHT22;1336;48.692;9.144;2023-03-20T06:31:27;11.90;97.20
2653;DHT22;1336;48.692;9.144;2023-03-20T06:32:19;11.90;97.20
2653;DHT22;1336;48.692;9.144;2023-03-20T06:33:09;11.90;97.20
2653;DHT22;1336;48.692;9.144;2023-03-20T06:34:01;11.90;97.20
2653;DHT22;1336;48.692;9.144;2023-03-20T06:34:52;11.90;97.20
2653;DHT22;1336;48.692;9.144;2023-03-20T06:35:44;11.90;97.20
2653;DHT22;1336;48.692;9.144;2023-03-20T06:36:35;11.90;97.20
2653;DHT22;1336;48.692;9.144;2023-03-20T06:37:27;11.90;97.20
2653;DHT22;1336;48.692;9.144;2023-03-20T06:38:18;11.90;97.20
2653;DHT22;1336;48.692;9.144;2023-03-20T06:39:09;11.90;97.20
2653;DHT22;1336;48.692;9.144;2023-03-20T06:40:01;11.90;97.20
2653;DHT22;1336;48.692;9.144;2023-03-20T06:40:53;11.90;97.20
2653;DHT22;1336;48.692;9.144;2023-03-20T06:41:43;11.90;97.20
2653;DHT22;1336;48.692;9.144;2023-03-20T06:42:35;11.90;97.20
2653;DHT22;1336;48.692;9.144;2023-03-20T06:43:26;11.90;97.20
2653;DHT22;1336;48.692;9.144;2023-03-20T06:44:17;11.90;97.20
2653;DHT22;1336;48.692;9.144;2023-03-20T06:45:09;11.90;97.20
2653;DHT22;1336;48.692;9.144;2023-03-20T06:46:00;11.90;97.20
2653;DHT22;1336;48.692;9.144;2023-03-20T06:46:53;11.90;97.20
2653;DHT22;1336;48.692;9.144;2023-03-20T06:47:44;11.90;97.20
2653;DHT22;1336;48.692;9.144;2023-03-20T06:48:36;11.90;97.20
2653;DHT22;1336;48.692;9.144;2023-03-20T06:49:27;11.90;97.20
2653;DHT22;1336;48.692;9.144;2023-03-20T06:50:19;11.90;97.20
2653;DHT22;1336;48.692;9.144;2023-03-20T06:51:10;11.90;97.20
2653;DHT22;1336;48.692;9.144;2023-03-20T06:52:02;11.90;97.20
2653;DHT22;1336;48.692;9.144;2023-03-20T06:52:53;12.00;97.20
2653;DHT22;1336;48.692;9.144;2023-03-20T06:53:45;12.00;97.20
2653;DHT22;1336;48.692;9.144;2023-03-20T06:54:36;12.00;97.20
2653;DHT22;1336;48.692;9.144;2023-03-20T06:55:28;12.10;97.20
2653;DHT22;1336;48.692;9.144;2023-03-20T06:56:19;12.10;97.20
2653;DHT22;1336;48.692;9.144;2023-03-20T06:57:11;12.10;97.20
2653;DHT22;1336;48.692;9.144;2023-03-20T06:58:01;12.20;97.20
2653;DHT22;1336;48.692;9.144;2023-03-20T06:58:53;12.20;97.20
2653;DHT22;1336;48.692;9.144;2023-03-20T06:59:44;12.20;97.20
2653;DHT22;1336;48.692;9.144;2023-03-20T07:00:36;12.30;97.20
2653;DHT22;1336;48.692;9.144;2023-03-20T07:01:27;12.40;97.20
2653;DHT22;1336;48.692;9.144;2023-03-20T07:02:20;12.40;97.20
2653;DHT22;1336;48.692;9.144;2023-03-20T07:03:11;12.40;97.20
2653;DHT22;1336;48.692;9.144;2023-03-20T07:04:03;12.50;97.20
2653;DHT22;1336;48.692;9.144;2023-03-20T07:04:54;12.50;97.20
2653;DHT22;1336;48.692;9.144;2023-03-20T07:05:46;12.50;97.20
2653;DHT22;1336;48.692;9.144;2023-03-20T07:06:36;12.60;97.20
2653;DHT22;1336;48.692;9.144;2023-03-20T07:07:28;12.70;97.20
2653;DHT22;1336;48.692;9.144;2023-03-20T07:08:20;12.70;97.20
2653;DHT22;1336;48.692;9.144;2023-03-20T07:09:10;12.80;97.20
2653;DHT22;1336;48.692;9.144;2023-03-20T07:10:03;12.90;97.20
2653;DHT22;1336;48.692;9.144;2023-03-20T07:10:53;12.90;97.20
2653;DHT22;1336;48.692;9.144;2023-03-20T07:11:45;13.00;97.20
2653;DHT22;1336;48.692;9.144;2023-03-20T07:12:36;13.10;97.20
2653;DHT22;1336;48.692;9.144;2023-03-20T07:13:28;13.10;97.20
2653;DHT22;1336;48.692;9.144;2023-03-20T07:14:19;13.30;97.20
2653;DHT22;1336;48.692;9.144;2023-03-20T07:15:10;13.30;97.20
2653;DHT22;1336;48.692;9.144;2023-03-20T07:16:02;13.40;97.20
2653;DHT22;1336;48.692;9.144;2023-03-20T07:16:54;13.50;97.20
2653;DHT22;1336;48.692;9.144;2023-03-20T07:17:47;13.50;97.20
2653;DHT22;1336;48.692;9.144;2023-03-20T07:18:38;13.60;97.20
2653;DHT22;1336;48.692;9.144;2023-03-20T07:19:29;13.70;97.20
2653;DHT22;1336;48.692;9.144;2023-03-20T07:20:21;13.80;97.20
2653;DHT22;1336;48.692;9.144;2023-03-20T07:21:16;13.80;97.20
2653;DHT22;1336;48.692;9.144;2023-03-20T07:22:16;13.90;97.20
2653;DHT22;1336;48.692;9.144;2023-03-20T07:23:07;14.00;97.20
2653;DHT22;1336;48.692;9.144;2023-03-20T07:24:00;14.10;97.20
2653;DHT22;1336;48.692;9.144;2023-03-20T07:24:51;14.10;97.20
2653;DHT22;1336;48.692;9.144;2023-03-20T07:25:42;14.10;97.20
2653;DHT22;1336;48.692;9.144;2023-03-20T07:26:34;14.20;97.20
2653;DHT22;1336;48.692;9.144;2023-03-20T07:27:26;14.20;97.20
2653;DHT22;1336;48.692;9.144;2023-03-20T07:28:17;14.30;97.20
2653;DHT22;1336;48.692;9.144;2023-03-20T07:29:08;14.30;97.20
2653;DHT22;1336;48.692;9.144;2023-03-20T07:29:59;14.30;97.20
2653;DHT22;1336;48.692;9.144;2023-03-20T07:30:51;14.40;97.20
2653;DHT22;1336;48.692;9.144;2023-03-20T07:31:42;14.30;97.20
2653;DHT22;1336;48.692;9.144;2023-03-20T07:32:33;14.30;97.20
2653;DHT22;1336;48.692;9.144;2023-03-20T07:33:25;14.20;97.20
2653;DHT22;1336;48.692;9.144;2023-03-20T07:34:17;14.00;97.20
2653;DHT22;1336;48.692;9.144;2023-03-20T07:35:08;13.90;97.20
2653;DHT22;1336;48.692;9.144;2023-03-20T07:36:00;13.80;97.20
2653;DHT22;1336;48.692;9.144;2023-03-20T07:36:51;13.60;97.20
2653;DHT22;1336;48.692;9.144;2023-03-20T07:37:42;13.50;97.20
2653;DHT22;1336;48.692;9.144;2023-03-20T07:38:33;13.40;97.20
2653;DHT22;1336;48.692;9.144;2023-03-20T07:39:25;13.40;97.20
2653;DHT22;1336;48.692;9.144;2023-03-20T07:40:17;13.40;97.20
2653;DHT22;1336;48.692;9.144;2023-03-20T07:41:09;13.30;97.20
2653;DHT22;1336;48.692;9.144;2023-03-20T07:41:59;13.40;97.20
2653;DHT22;1336;48.692;9.144;2023-03-20T07:42:51;13.40;97.20
2653;DHT22;1336;48.692;9.144;2023-03-20T07:43:42;13.50;97.20
2653;DHT22;1336;48.692;9.144;2023-03-20T07:44:33;13.50;97.20
2653;DHT22;1336;48.692;9.144;2023-03-20T07:45:25;13.60;97.20
2653;DHT22;1336;48.692;9.144;2023-03-20T07:46:16;13.60;97.20
2653;DHT22;1336;48.692;9.144;2023-03-20T07:47:07;13.70;97.20
2653;DHT22;1336;48.692;9.144;2023-03-20T07:47:59;13.70;97.20
2653;DHT22;1336;48.692;9.144;2023-03-20T07:48:51;13.70;97.20
2653;DHT22;1336;48.692;9.144;2023-03-20T07:49:43;13.70;97.20
2653;DHT22;1336;48.692;9.144;2023-03-20T07:50:33;13.70;97.20
2653;DHT22;1336;48.692;9.144;2023-03-20T07:51:25;13.70;97.20
2653;DHT22;1336;48.692;9.144;2023-03-20T07:52:16;13.70;97.20
2653;DHT22;1336;48.692;9.144;2023-03-20T07:53:08;13.80;97.20
2653;DHT22;1336;48.692;9.144;2023-03-20T07:53:58;13.80;97.20
2653;DHT22;1336;48.692;9.144;2023-03-20T07:54:50;13.80;97.20
2653;DHT22;1336;48.692;9.144;2023-03-20T07:55:42;13.70;97.20
2653;DHT22;1336;48.692;9.144;2023-03-20T07:56:34;13.70;97.20
2653;DHT22;1336;48.692;9.144;2023-03-20T07:57:25;13.70;97.20
2653;DHT22;1336;48.692;9.144;2023-03-20T07:58:17;13.70;97.20
2653;DHT22;1336;48.692;9.144;2023-03-20T07:59:08;13.70;97.20
2653;DHT22;1336;48.692;9.144;2023-03-20T08:00:00;13.70;97.20
2653;DHT22;1336;48.692;9.144;2023-03-20T08:00:51;13.70;97.20
2653;DHT22;1336;48.692;9.144;2023-03-20T08:01:43;13.70;97.20
2653;DHT22;1336;48.692;9.144;2023-03-20T08:02:34;13.70;97.20
2653;DHT22;1336;48.692;9.144;2023-03-20T08:03:26;13.70;97.20
2653;DHT22;1336;48.692;9.144;2023-03-20T08:04:18;13.70;97.20
2653;DHT22;1336;48.692;9.144;2023-03-20T08:05:11;13.80;97.20
2653;DHT22;1336;48.692;9.144;2023-03-20T08:06:02;13.80;97.20
2653;DHT22;1336;48.692;9.144;2023-03-20T08:06:56;13.70;97.20
2653;DHT22;1336;48.692;9.144;2023-03-20T08:07:47;13.80;97.20
2653;DHT22;1336;48.692;9.144;2023-03-20T08:08:40;13.80;97.20
2653;DHT22;1336;48.692;9.144;2023-03-20T08:09:31;13.80;97.20
2653;DHT22;1336;48.692;9.144;2023-03-20T08:10:23;13.80;97.20
2653;DHT22;1336;48.692;9.144;2023-03-20T08:11:13;13.80;97.20
2653;DHT22;1336;48.692;9.144;2023-03-20T08:12:05;13.80;97.20
2653;DHT22;1336;48.692;9.144;2023-03-20T08:12:56;13.90;97.20
2653;DHT22;1336;48.692;9.144;2023-03-20T08:13:48;13.90;97.20
2653;DHT22;1336;48.692;9.144;2023-03-20T08:14:38;13.90;97.20
2653;DHT22;1336;48.692;9.144;2023-03-20T08:15:31;13.90;97.20
2653;DHT22;1336;48.692;9.144;2023-03-20T08:16:22;13.90;97.20
2653;DHT22;1336;48.692;9.144;2023-03-20T08:17:14;13.90;97.20
2653;DHT22;1336;48.692;9.144;2023-03-20T08:18:05;13.90;97.20
2653;DHT22;1336;48.692;9.144;2023-03-20T08:18:57;13.90;97.20
2653;DHT22;1336;48.692;9.144;2023-03-20T08:19:52;13.90;97.20
2653;DHT22;1336;48.692;9.144;2023-03-20T08:20:43;14.00;97.20
2653;DHT22;1336;48.692;9.144;2023-03-20T08:21:35;14.00;97.20
2653;DHT22;1336;48.692;9.144;2023-03-20T08:22:26;13.90;97.20
2653;DHT22;1336;48.692;9.144;2023-03-20T08:23:17;13.90;97.20
2653;DHT22;1336;48.692;9.144;2023-03-20T08:24:08;13.80;97.20
2653;DHT22;1336;48.692;9.144;2023-03-20T08:25:00;13.80;97.20
2653;DHT22;1336;48.692;9.144;2023-03-20T08:25:51;13.70;97.20
2653;DHT22;1336;48.692;9.144;2023-03-20T08:26:43;13.60;97.20
2653;DHT22;1336;48.692;9.144;2023-03-20T08:27:36;13.50;97.20
2653;DHT22;1336;48.692;9.144;2023-03-20T08:28:28;13.50;97.20
2653;DHT22;1336;48.692;9.144;2023-03-20T08:29:19;13.40;97.20
2653;DHT22;1336;48.692;9.144;2023-03-20T08:30:11;13.40;97.20
2653;DHT22;1336;48.692;9.144;2023-03-20T08:31:06;13.30;97.20
2653;DHT22;1336;48.692;9.144;2023-03-20T08:31:57;13.30;97.20
2653;DHT22;1336;48.692;9.144;2023-03-20T08:32:49;13.30;97.20
2653;DHT22;1336;48.692;9.144;2023-03-20T08:33:40;13.40;97.20
2653;DHT22;1336;48.692;9.144;2023-03-20T08:34:32;13.40;97.20
2653;DHT22;1336;48.692;9.144;2023-03-20T08:35:24;13.40;97.20
2653;DHT22;1336;48.692;9.144;2023-03-20T08:36:16;13.50;97.20
2653;DHT22;1336;48.692;9.144;2023-03-20T08:37:09;13.50;97.20
2653;DHT22;1336;48.692;9.144;2023-03-20T08:38:02;13.60;97.20
2653;DHT22;1336;48.692;9.144;2023-03-20T08:38:53;13.60;97.20
2653;DHT22;1336;48.692;9.144;2023-03-20T08:39:45;13.70;97.20
2653;DHT22;1336;48.692;9.144;2023-03-20T08:40:36;13.80;97.20
2653;DHT22;1336;48.692;9.144;2023-03-20T08:41:30;13.80;97.20
2653;DHT22;1336;48.692;9.144;2023-03-20T08:42:22;13.90;97.20
2653;DHT22;1336;48.692;9.144;2023-03-20T08:43:12;14.00;97.20
2653;DHT22;1336;48.692;9.144;2023-03-20T08:44:04;14.00;97.20
2653;DHT22;1336;48.692;9.144;2023-03-20T08:44:55;14.10;97.20
2653;DHT22;1336;48.692;9.144;2023-03-20T08:45:47;14.10;97.20
2653;DHT22;1336;48.692;9.144;2023-03-20T08:46:38;14.10;97.20
2653;DHT22;1336;48.692;9.144;2023-03-20T08:47:30;14.20;97.20
2653;DHT22;1336;48.692;9.144;2023-03-20T08:48:21;14.20;97.20
2653;DHT22;1336;48.692;9.144;2023-03-20T08:49:13;14.30;97.20
2653;DHT22;1336;48.692;9.144;2023-03-20T08:50:04;14.30;97.20
2653;DHT22;1336;48.692;9.144;2023-03-20T08:50:58;14.40;97.20
2653;DHT22;1336;48.692;9.144;2023-03-20T08:51:50;14.40;97.20
2653;DHT22;1336;48.692;9.144;2023-03-20T08:52:40;14.50;97.20
2653;DHT22;1336;48.692;9.144;2023-03-20T08:53:33;14.50;97.20
2653;DHT22;1336;48.692;9.144;2023-03-20T08:54:25;14.60;97.20
2653;DHT22;1336;48.692;9.144;2023-03-20T08:55:16;14.60;97.20
2653;DHT22;1336;48.692;9.144;2023-03-20T08:56:08;14.70;97.20
2653;DHT22;1336;48.692;9.144;2023-03-20T08:57:00;14.80;97.20
2653;DHT22;1336;48.692;9.144;2023-03-20T08:57:51;14.90;97.20
2653;DHT22;1336;48.692;9.144;2023-03-20T08:58:43;14.90;97.20
2653;DHT22;1336;48.692;9.144;2023-03-20T08:59:35;15.00;97.20
2653;DHT22;1336;48.692;9.144;2023-03-20T09:00:26;15.00;97.20
2653;DHT22;1336;48.692;9.144;2023-03-20T09:01:18;15.10;97.20
2653;DHT22;1336;48.692;9.144;2023-03-20T09:02:09;15.20;97.20
2653;DHT22;1336;48.692;9.144;2023-03-20T09:03:01;15.30;97.20
2653;DHT22;1336;48.692;9.144;2023-03-20T09:03:52;15.40;97.20
2653;DHT22;1336;48.692;9.144;2023-03-20T09:04:44;15.50;97.20
2653;DHT22;1336;48.692;9.144;2023-03-20T09:05:35;15.50;97.20
2653;DHT22;1336;48.692;9.144;2023-03-20T09:06:29;15.50;97.20
2653;DHT22;1336;48.692;9.144;2023-03-20T09:07:20;15.60;97.20
2653;DHT22;1336;48.692;9.144;2023-03-20T09:08:12;15.60;97.20
2653;DHT22;1336;48.692;9.144;2023-03-20T09:09:03;15.60;97.20
2653;DHT22;1336;48.692;9.144;2023-03-20T09:09:55;15.60;97.20
2653;DHT22;1336;48.692;9.144;2023-03-20T09:10:46;15.60;97.20
2653;DHT22;1336;48.692;9.144;2023-03-20T09:11:38;15.70;97.20
2653;DHT22;1336;48.692;9.144;2023-03-20T09:12:29;15.80;97.20
2653;DHT22;1336;48.692;9.144;2023-03-20T09:13:22;16.00;97.20
2653;DHT22;1336;48.692;9.144;2023-03-20T09:14:12;16.10;97.20
2653;DHT22;1336;48.692;9.144;2023-03-20T09:15:05;16.30;97.20
2653;DHT22;1336;48.692;9.144;2023-03-20T09:15:56;16.50;97.20
2653;DHT22;1336;48.692;9.144;2023-03-20T09:16:48;16.60;97.20
2653;DHT22;1336;48.692;9.144;2023-03-20T09:17:39;16.70;97.20
2653;DHT22;1336;48.692;9.144;2023-03-20T09:18:31;16.80;97.20
2653;DHT22;1336;48.692;9.144;2023-03-20T09:19:22;16.80;97.20
2653;DHT22;1336;48.692;9.144;2023-03-20T09:20:13;16.80;97.20
2653;DHT22;1336;48.692;9.144;2023-03-20T09:21:05;16.80;97.20
2653;DHT22;1336;48.692;9.144;2023-03-20T09:21:58;16.80;97.20
2653;DHT22;1336;48.692;9.144;2023-03-20T09:22:49;16.80;97.20
2653;DHT22;1336;48.692;9.144;2023-03-20T09:23:41;16.80;97.20
2653;DHT22;1336;48.692;9.144;2023-03-20T09:24:32;16.80;97.20
2653;DHT22;1336;48.692;9.144;2023-03-20T09:25:23;16.80;97.20
2653;DHT22;1336;48.692;9.144;2023-03-20T09:26:14;16.80;97.20
2653;DHT22;1336;48.692;9.144;2023-03-20T09:27:06;16.80;97.20
2653;DHT22;1336;48.692;9.144;2023-03-20T09:27:57;16.70;97.20
2653;DHT22;1336;48.692;9.144;2023-03-20T09:28:48;16.70;97.20
2653;DHT22;1336;48.692;9.144;2023-03-20T09:29:39;16.70;97.20
2653;DHT22;1336;48.692;9.144;2023-03-20T09:30:31;16.70;97.20
2653;DHT22;1336;48.692;9.144;2023-03-20T09:31:22;16.80;97.20
2653;DHT22;1336;48.692;9.144;2023-03-20T09:32:14;16.80;97.20
2653;DHT22;1336;48.692;9.144;2023-03-20T09:33:05;16.80;97.20
2653;DHT22;1336;48.692;9.144;2023-03-20T09:33:57;16.80;97.20
2653;DHT22;1336;48.692;9.144;2023-03-20T09:34:48;16.80;97.20
2653;DHT22;1336;48.692;9.144;2023-03-20T09:35:40;16.70;97.20
2653;DHT22;1336;48.692;9.144;2023-03-20T09:36:31;16.70;97.20
2653;DHT22;1336;48.692;9.144;2023-03-20T09:37:24;16.60;97.20
2653;DHT22;1336;48.692;9.144;2023-03-20T09:38:15;16.50;97.20
2653;DHT22;1336;48.692;9.144;2023-03-20T09:39:06;16.40;97.20
2653;DHT22;1336;48.692;9.144;2023-03-20T09:39:58;16.30;97.20
2653;DHT22;1336;48.692;9.144;2023-03-20T09:40:52;16.20;97.20
2653;DHT22;1336;48.692;9.144;2023-03-20T09:41:47;16.20;97.20
2653;DHT22;1336;48.692;9.144;2023-03-20T09:42:45;16.10;97.20
2653;DHT22;1336;48.692;9.144;2023-03-20T09:43:47;16.10;97.20
2653;DHT22;1336;48.692;9.144;2023-03-20T09:44:51;16.10;97.20
2653;DHT22;1336;48.692;9.144;2023-03-20T09:45:48;16.00;97.20
2653;DHT22;1336;48.692;9.144;2023-03-20T09:46:53;16.00;97.20
2653;DHT22;1336;48.692;9.144;2023-03-20T09:47:50;16.00;97.20
2653;DHT22;1336;48.692;9.144;2023-03-20T09:48:47;15.90;97.20
2653;DHT22;1336;48.692;9.144;2023-03-20T09:49:44;15.90;97.20
2653;DHT22;1336;48.692;9.144;2023-03-20T09:50:43;15.70;97.20
2653;DHT22;1336;48.692;9.144;2023-03-20T09:51:40;15.70;97.20
2653;DHT22;1336;48.692;9.144;2023-03-20T09:52:37;15.50;97.20
2653;DHT22;1336;48.692;9.144;2023-03-20T09:53:33;15.40;97.20
2653;DHT22;1336;48.692;9.144;2023-03-20T09:54:28;15.30;97.20
2653;DHT22;1336;48.692;9.144;2023-03-20T09:55:26;15.20;97.20
2653;DHT22;1336;48.692;9.144;2023-03-20T09:56:22;15.10;97.20
2653;DHT22;1336;48.692;9.144;2023-03-20T09:57:19;15.00;97.20
2653;DHT22;1336;48.692;9.144;2023-03-20T09:58:15;15.00;97.20
2653;DHT22;1336;48.692;9.144;2023-03-20T09:59:12;14.90;97.20
2653;DHT22;1336;48.692;9.144;2023-03-20T10:00:06;14.90;97.20
2653;DHT22;1336;48.692;9.144;2023-03-20T10:01:03;14.90;97.20
2653;DHT22;1336;48.692;9.144;2023-03-20T10:01:58;14.90;97.20
2653;DHT22;1336;48.692;9.144;2023-03-20T10:02:52;14.80;97.20
2653;DHT22;1336;48.692;9.144;2023-03-20T10:03:50;14.90;97.20
2653;DHT22;1336;48.692;9.144;2023-03-20T10:04:43;14.90;97.20
2653;DHT22;1336;48.692;9.144;2023-03-20T10:05:41;14.90;97.20
2653;DHT22;1336;48.692;9.144;2023-03-20T10:06:34;14.90;97.20
2653;DHT22;1336;48.692;9.144;2023-03-20T10:07:25;14.90;97.20
2653;DHT22;1336;48.692;9.144;2023-03-20T10:08:21;14.90;97.20
2653;DHT22;1336;48.692;9.144;2023-03-20T10:09:15;14.90;97.20
2653;DHT22;1336;48.692;9.144;2023-03-20T10:10:11;14.90;97.20
2653;DHT22;1336;48.692;9.144;2023-03-20T10:11:22;14.90;97.20
2653;DHT22;1336;48.692;9.144;2023-03-20T10:12:38;14.90;97.20
2653;DHT22;1336;48.692;9.144;2023-03-20T10:13:47;14.80;97.20
2653;DHT22;1336;48.692;9.144;2023-03-20T10:14:47;14.70;97.20
2653;DHT22;1336;48.692;9.144;2023-03-20T10:15:45;14.60;97.20
2653;DHT22;1336;48.692;9.144;2023-03-20T10:16:45;14.60;97.20
2653;DHT22;1336;48.692;9.144;2023-03-20T10:17:50;14.50;97.20
2653;DHT22;1336;48.692;9.144;2023-03-20T10:18:50;14.50;97.20
2653;DHT22;1336;48.692;9.144;2023-03-20T10:19:47;14.50;97.20
2653;DHT22;1336;48.692;9.144;2023-03-20T10:20:42;14.50;97.20
2653;DHT22;1336;48.692;9.144;2023-03-20T10:21:41;14.50;97.20
2653;DHT22;1336;48.692;9.144;2023-03-20T10:22:35;14.50;97.20
2653;DHT22;1336;48.692;9.144;2023-03-20T10:23:33;14.50;97.20
2653;DHT22;1336;48.692;9.144;2023-03-20T10:24:28;14.60;97.20
2653;DHT22;1336;48.692;9.144;2023-03-20T10:25:27;14.60;97.20
2653;DHT22;1336;48.692;9.144;2023-03-20T10:26:22;14.70;97.20
2653;DHT22;1336;48.692;9.144;2023-03-20T10:27:19;14.80;97.20
2653;DHT22;1336;48.692;9.144;2023-03-20T10:28:16;14.90;97.20
2653;DHT22;1336;48.692;9.144;2023-03-20T10:29:17;15.10;97.20
2653;DHT22;1336;48.692;9.144;2023-03-20T10:30:28;15.30;97.20
2653;DHT22;1336;48.692;9.144;2023-03-20T10:31:32;15.70;97.20
2653;DHT22;1336;48.692;9.144;2023-03-20T10:32:31;16.20;97.20
2653;DHT22;1336;48.692;9.144;2023-03-20T10:33:38;16.70;97.20
2653;DHT22;1336;48.692;9.144;2023-03-20T10:34:44;17.10;97.20
2653;DHT22;1336;48.692;9.144;2023-03-20T10:35:42;17.30;97.20
2653;DHT22;1336;48.692;9.144;2023-03-20T10:36:48;17.40;97.20
2653;DHT22;1336;48.692;9.144;2023-03-20T10:37:50;17.30;97.20
2653;DHT22;1336;48.692;9.144;2023-03-20T10:38:50;17.10;97.20
2653;DHT22;1336;48.692;9.144;2023-03-20T10:39:53;16.90;97.20
2653;DHT22;1336;48.692;9.144;2023-03-20T10:40:47;16.80;97.20
2653;DHT22;1336;48.692;9.144;2023-03-20T10:41:40;16.70;97.20
2653;DHT22;1336;48.692;9.144;2023-03-20T10:42:35;16.60;97.20
2653;DHT22;1336;48.692;9.144;2023-03-20T10:43:29;16.40;97.20
2653;DHT22;1336;48.692;9.144;2023-03-20T10:44:28;16.30;97.20
2653;DHT22;1336;48.692;9.144;2023-03-20T10:45:29;16.20;97.20
2653;DHT22;1336;48.692;9.144;2023-03-20T10:46:24;16.10;97.20
2653;DHT22;1336;48.692;9.144;2023-03-20T10:47:19;16.00;97.20
2653;DHT22;1336;48.692;9.144;2023-03-20T10:48:16;15.90;97.20
2653;DHT22;1336;48.692;9.144;2023-03-20T10:49:15;15.90;97.20
2653;DHT22;1336;48.692;9.144;2023-03-20T10:50:15;15.80;97.20
2653;DHT22;1336;48.692;9.144;2023-03-20T10:51:12;15.70;97.20
2653;DHT22;1336;48.692;9.144;2023-03-20T10:52:09;15.60;97.20
2653;DHT22;1336;48.692;9.144;2023-03-20T10:53:03;15.60;97.20
2653;DHT22;1336;48.692;9.144;2023-03-20T10:53:59;15.60;97.20
2653;DHT22;1336;48.692;9.144;2023-03-20T10:54:54;15.50;97.20
2653;DHT22;1336;48.692;9.144;2023-03-20T10:55:47;15.50;97.20
2653;DHT22;1336;48.692;9.144;2023-03-20T10:56:42;15.40;97.20
2653;DHT22;1336;48.692;9.144;2023-03-20T10:57:38;15.40;97.20
2653;DHT22;1336;48.692;9.144;2023-03-20T10:58:34;15.40;97.20
2653;DHT22;1336;48.692;9.144;2023-03-20T10:59:30;15.40;97.20
2653;DHT22;1336;48.692;9.144;2023-03-20T11:00:25;15.40;97.20
2653;DHT22;1336;48.692;9.144;2023-03-20T11:01:17;15.30;97.20
2653;DHT22;1336;48.692;9.144;2023-03-20T11:02:10;15.30;97.20
2653;DHT22;1336;48.692;9.144;2023-03-20T11:03:02;15.30;97.20
2653;DHT22;1336;48.692;9.144;2023-03-20T11:03:54;15.30;97.20
2653;DHT22;1336;48.692;9.144;2023-03-20T11:04:45;15.30;97.20
2653;DHT22;1336;48.692;9.144;2023-03-20T11:05:37;15.20;97.20
2653;DHT22;1336;48.692;9.144;2023-03-20T11:06:31;15.20;97.20
2653;DHT22;1336;48.692;9.144;2023-03-20T11:07:25;15.20;97.20
2653;DHT22;1336;48.692;9.144;2023-03-20T11:08:21;15.30;97.20
2653;DHT22;1336;48.692;9.144;2023-03-20T11:09:19;15.30;97.20
2653;DHT22;1336;48.692;9.144;2023-03-20T11:10:13;15.30;97.20
2653;DHT22;1336;48.692;9.144;2023-03-20T11:11:06;15.30;97.20
2653;DHT22;1336;48.692;9.144;2023-03-20T11:12:00;15.30;97.20
2653;DHT22;1336;48.692;9.144;2023-03-20T11:12:51;15.30;97.20
2653;DHT22;1336;48.692;9.144;2023-03-20T11:13:43;15.30;97.20
2653;DHT22;1336;48.692;9.144;2023-03-20T11:14:36;15.30;97.20
2653;DHT22;1336;48.692;9.144;2023-03-20T11:15:32;15.20;97.20
2653;DHT22;1336;48.692;9.144;2023-03-20T11:16:28;15.20;97.20
2653;DHT22;1336;48.692;9.144;2023-03-20T11:17:20;15.20;97.20
2653;DHT22;1336;48.692;9.144;2023-03-20T11:18:12;15.20;97.20
2653;DHT22;1336;48.692;9.144;2023-03-20T11:19:07;15.20;97.20
2653;DHT22;1336;48.692;9.144;2023-03-20T11:20:04;15.20;97.20
2653;DHT22;1336;48.692;9.144;2023-03-20T11:20:56;15.20;97.20
2653;DHT22;1336;48.692;9.144;2023-03-20T11:21:49;15.20;97.20
2653;DHT22;1336;48.692;9.144;2023-03-20T11:22:41;15.20;97.20
2653;DHT22;1336;48.692;9.144;2023-03-20T11:23:33;15.20;97.20
2653;DHT22;1336;48.692;9.144;2023-03-20T11:24:40;15.20;97.20
2653;DHT22;1336;48.692;9.144;2023-03-20T11:27:24;15.20;97.20
2653;DHT22;1336;48.692;9.144;2023-03-20T11:28:24;15.20;97.20
2653;DHT22;1336;48.692;9.144;2023-03-20T11:29:23;15.20;97.20
2653;DHT22;1336;48.692;9.144;2023-03-20T11:30:16;15.20;97.20
2653;DHT22;1336;48.692;9.144;2023-03-20T11:31:16;15.20;97.20
2653;DHT22;1336;48.692;9.144;2023-03-20T11:32:19;15.20;97.20
2653;DHT22;1336;48.692;9.144;2023-03-20T11:33:14;15.20;97.20
2653;DHT22;1336;48.692;9.144;2023-03-20T11:34:11;15.20;97.20
2653;DHT22;1336;48.692;9.144;2023-03-20T11:35:17;15.20;97.20
2653;DHT22;1336;48.692;9.144;2023-03-20T11:36:20;15.20;97.20
2653;DHT22;1336;48.692;9.144;2023-03-20T11:37:22;15.20;97.20
2653;DHT22;1336;48.692;9.144;2023-03-20T11:38:16;15.20;97.20
2653;DHT22;1336;48.692;9.144;2023-03-20T11:39:12;15.20;97.20
2653;DHT22;1336;48.692;9.144;2023-03-20T11:40:14;15.20;97.20
2653;DHT22;1336;48.692;9.144;2023-03-20T11:41:16;15.20;97.20
2653;DHT22;1336;48.692;9.144;2023-03-20T11:42:21;15.20;97.20
2653;DHT22;1336;48.692;9.144;2023-03-20T11:43:17;15.10;97.20
2653;DHT22;1336;48.692;9.144;2023-03-20T11:44:20;15.10;97.20
2653;DHT22;1336;48.692;9.144;2023-03-20T11:45:15;15.10;97.20
2653;DHT22;1336;48.692;9.144;2023-03-20T11:46:09;15.10;97.20
2653;DHT22;1336;48.692;9.144;2023-03-20T11:47:04;15.20;97.20
2653;DHT22;1336;48.692;9.144;2023-03-20T11:47:56;15.20;97.20
2653;DHT22;1336;48.692;9.144;2023-03-20T11:49:02;15.30;97.20
2653;DHT22;1336;48.692;9.144;2023-03-20T11:49:55;15.40;97.20
2653;DHT22;1336;48.692;9.144;2023-03-20T11:50:50;15.40;97.20
2653;DHT22;1336;48.692;9.144;2023-03-20T11:51:46;15.50;97.20